Stony Rapids Airport
CYSF : now visible

Airfield :











YOU CAN JOIN US ON...

 
LOGIN :

Register | Disclaimer

   EN    FR    IT 

 









Legend :    VFR   Marginal VFR   IFR   Intensive IFR   Very Intensive IFR
Visi :
Ceiling :
>= 8 km
>= 3000ft
5 to 8 km
1000 to 3000 ft
1500m to 5 km
500 to 1000 ft
800 to 1500m
200 to 500 ft
< 800m
< 200 ft
Symbols :   Thunderstorms  Fog  Heavy snow  Heavy precipitations  Wind > 20 kt






- Airport Elevation : 805 ft
- IATA code : YSF


CYSF - Stony Rapids

CURRENT METAR :
  • 221100Z AUTO 09003KT 9SM CLR 04/03 A2952 RMK SLP005

EXPIRED METARs :
  • 221000Z AUTO 14003KT 9SM CLR 04/03 A2953 RMK SLP012
  • 220900Z AUTO 13003KT 9SM CLR 04/03 A2955 RMK SLP018

TAF TAF CYSF
Valid from the 22 at 06:00 until the 22 at 18:00 UTC


220553Z 2206/2218 22005KT P6SM FEW110 BKN240 RMK FCST BASED ON AUTO OBS. NXT FCST BY 221200Z
CZEG FIR / North America



MET'MAP, your aeronautical weather chart ! - Copyright ORBIFLY December 2007 - Disclaimer

ORBIFLY MET'MAP TEAM :

Programming & Development : Alexandra Zaïnal
Concept & original design : Baudouin d'Aumeries
Assistance for programming : Marc-Olivier Méhu
Technical & hardware support : Manuel Goepfert

Contact : metmap@orbifly.com




SOURCES & CREDITS :

   NOAA       Earth
Advisory